Time;durP1;ratioP1;P1;durP2;ratioP2;P2;SDS_P1;SDS_P2;PMS_P1;PMS_P2;Temp;Humidity;BMP_temperature;BMP_pressure;BME280_temperature;BME280_humidity;BME280_pressure;Samples;Min_cycle;Max_cycle;Signal;HPM_P1;HPM_P2
2021/11/22 16:34:06;;;;;;;;;;;21.40;66.50;;;;;;5089064;28;19919;-66
2021/11/22 16:36:31;;;;;;;;;;;21.40;68.50;;;;;;5089396;28;20007;-64
2021/11/22 16:38:58;;;;;;;;;;;21.60;70.30;;;;;;5089318;28;19912;-63
2021/11/22 16:41:23;;;;;;;;;;;21.70;71.20;;;;;;5089238;28;20031;-63
2021/11/22 16:43:49;;;;;;;;;;;21.90;71.50;;;;;;5089232;28;19966;-64
2021/11/22 16:46:15;;;;;;;;;;;22.10;71.60;;;;;;5089403;28;19908;-67
2021/11/22 16:48:40;;;;;;;;;;;22.30;71.70;;;;;;5088619;28;19908;-67
2021/11/22 16:51:06;;;;;;;;;;;22.40;71.60;;;;;;5089298;28;19958;-67
2021/11/22 16:53:32;;;;;;;;;;;22.60;71.60;;;;;;5089030;28;19916;-67
2021/11/22 16:55:57;;;;;;;;;;;22.70;71.50;;;;;;5089047;28;19908;-66
2021/11/22 16:58:25;;;;;;;;;;;22.90;71.50;;;;;;5088850;28;19912;-65
2021/11/22 17:00:51;;;;;;;;;;;23.00;71.40;;;;;;5088967;28;19966;-63
2021/11/22 17:03:16;;;;;;;;;;;23.10;71.40;;;;;;5088602;28;19908;-64
2021/11/22 17:05:41;;;;;;;;;;;23.20;71.40;;;;;;5088914;28;19908;-63
2021/11/22 17:08:07;;;;;;;;;;;23.20;71.30;;;;;;5088730;28;19915;-62
2021/11/22 17:10:33;;;;;;;;;;;23.30;71.30;;;;;;5088741;28;20007;-64
2021/11/22 17:12:59;;;;;;;;;;;23.30;71.30;;;;;;5088739;28;19916;-62
2021/11/22 17:15:25;;;;;;;;;;;23.40;71.30;;;;;;5088809;28;19908;-63
2021/11/22 17:17:51;;;;;;;;;;;23.50;71.30;;;;;;5088115;28;19908;-63
2021/11/22 17:20:17;;;;;;;;;;;23.50;71.20;;;;;;5088807;28;19998;-62
2021/11/22 17:22:43;;;;;;;;;;;23.60;71.20;;;;;;5088540;28;20007;-62
2021/11/22 17:25:09;;;;;;;;;;;23.60;71.10;;;;;;5088444;28;20076;-64
2021/11/22 17:27:35;;;;;;;;;;;23.70;71.10;;;;;;5088427;28;19962;-62
2021/11/22 17:30:00;;;;;;;;;;;23.70;71.10;;;;;;5088395;28;19912;-63
2021/11/22 17:32:26;;;;;;;;;;;23.70;71.10;;;;;;5094535;28;20279;-63
2021/11/22 17:34:51;;;;;;;;;;;23.80;71.10;;;;;;5108646;28;19953;-62
2021/11/22 17:37:17;;;;;;;;;;;23.80;71.00;;;;;;5108656;28;19961;-62
2021/11/22 17:39:42;;;;;;;;;;;23.90;71.10;;;;;;5121220;28;20351;-60
2021/11/22 17:42:08;;;;;;;;;;;23.90;71.00;;;;;;5128936;27;19972;-58
2021/11/22 17:44:35;;;;;;;;;;;23.90;71.00;;;;;;5120501;28;20429;-58
2021/11/22 17:47:01;;;;;;;;;;;24.00;70.90;;;;;;5114666;28;19907;-58
2021/11/22 17:49:27;;;;;;;;;;;24.00;70.90;;;;;;5115089;28;19908;-59
2021/11/22 17:51:52;;;;;;;;;;;24.00;70.80;;;;;;5115229;28;19915;-59
2021/11/22 17:54:18;;;;;;;;;;;24.00;70.70;;;;;;5114940;28;19918;-59
2021/11/22 17:56:43;;;;;;;;;;;24.10;70.70;;;;;;5115024;28;19939;-61
2021/11/22 17:59:09;;;;;;;;;;;24.10;70.70;;;;;;5114904;28;19908;-63
2021/11/22 18:01:35;;;;;;;;;;;24.10;70.60;;;;;;5114408;28;19907;-62
2021/11/22 18:04:02;;;;;;;;;;;24.20;70.60;;;;;;5114844;28;19916;-62
2021/11/22 18:06:30;;;;;;;;;;;24.10;70.50;;;;;;5114731;28;20283;-63
2021/11/22 18:08:56;;;;;;;;;;;24.20;70.50;;;;;;5114687;28;19914;-62
2021/11/22 18:11:21;;;;;;;;;;;24.20;70.50;;;;;;5095998;28;19908;-62
2021/11/22 18:13:47;;;;;;;;;;;24.20;70.40;;;;;;5094373;28;19915;-62
2021/11/22 18:16:12;;;;;;;;;;;24.20;70.30;;;;;;5093747;28;20024;-63
2021/11/22 18:18:38;;;;;;;;;;;24.20;70.20;;;;;;5094073;28;19912;-61
2021/11/22 18:21:04;;;;;;;;;;;24.20;70.20;;;;;;5076003;28;20249;-62
2021/11/22 18:23:29;;;;;;;;;;;24.20;70.10;;;;;;5094095;28;19959;-62
2021/11/22 18:25:55;;;;;;;;;;;24.20;70.00;;;;;;5094131;28;20364;-62
2021/11/22 18:28:20;;;;;;;;;;;24.20;70.00;;;;;;5075743;28;20001;-63
2021/11/22 18:30:45;;;;;;;;;;;24.20;69.90;;;;;;5093525;28;19915;-63
2021/11/22 18:33:11;;;;;;;;;;;24.20;69.90;;;;;;5093676;28;19955;-62
2021/11/22 18:35:36;;;;;;;;;;;24.20;69.80;;;;;;5093857;28;19912;-66
2021/11/22 18:38:03;;;;;;;;;;;24.20;69.80;;;;;;5093803;28;19914;-67
2021/11/22 18:40:29;;;;;;;;;;;24.20;69.70;;;;;;5093581;28;19943;-66
2021/11/22 18:42:55;;;;;;;;;;;24.30;69.70;;;;;;5093579;28;19963;-63
2021/11/22 18:45:20;;;;;;;;;;;24.20;69.60;;;;;;5092661;28;19973;-63
2021/11/22 18:47:47;;;;;;;;;;;24.30;69.60;;;;;;5093508;28;19957;-64
2021/11/22 18:50:13;;;;;;;;;;;24.30;69.50;;;;;;5075317;28;19931;-65
2021/11/22 18:52:39;;;;;;;;;;;24.20;69.40;;;;;;5075376;28;20371;-65
2021/11/22 18:55:05;;;;;;;;;;;24.20;69.30;;;;;;5093114;28;19915;-65
2021/11/22 18:57:32;;;;;;;;;;;24.20;69.20;;;;;;5092758;28;19908;-64
2021/11/22 18:59:58;;;;;;;;;;;24.20;69.20;;;;;;5092851;28;19908;-65
2021/11/22 19:02:23;;;;;;;;;;;24.20;69.10;;;;;;5093233;28;19923;-65
2021/11/22 19:04:49;;;;;;;;;;;24.20;69.00;;;;;;5093293;28;19937;-65
2021/11/22 19:07:14;;;;;;;;;;;24.20;69.00;;;;;;5093299;28;20379;-64
2021/11/22 19:09:40;;;;;;;;;;;24.20;69.00;;;;;;5075046;28;19908;-65
2021/11/22 19:12:06;;;;;;;;;;;24.20;69.00;;;;;;5093122;28;20406;-64
2021/11/22 19:14:31;;;;;;;;;;;24.20;68.90;;;;;;5092532;28;19908;-65
2021/11/22 19:16:57;;;;;;;;;;;24.20;68.80;;;;;;5093117;28;19915;-65
2021/11/22 19:19:22;;;;;;;;;;;24.20;68.80;;;;;;5092959;28;19969;-65
2021/11/22 19:21:48;;;;;;;;;;;24.20;68.80;;;;;;5092903;28;19926;-65
2021/11/22 19:24:15;;;;;;;;;;;24.20;68.80;;;;;;5092875;28;19912;-64
2021/11/22 19:26:42;;;;;;;;;;;24.20;68.70;;;;;;5092797;28;19908;-63
2021/11/22 19:29:09;;;;;;;;;;;24.20;68.70;;;;;;5074127;28;19922;-63
2021/11/22 19:31:35;;;;;;;;;;;24.20;68.60;;;;;;5092573;28;20416;-63
2021/11/22 19:34:01;;;;;;;;;;;24.10;68.50;;;;;;5092570;28;19999;-64
2021/11/22 19:36:26;;;;;;;;;;;24.10;68.40;;;;;;5092519;28;19915;-64
2021/11/22 19:38:51;;;;;;;;;;;24.20;68.40;;;;;;5092717;28;20352;-64
2021/11/22 19:41:17;;;;;;;;;;;24.20;68.40;;;;;;5092484;28;20244;-64
2021/11/22 19:43:45;;;;;;;;;;;24.20;68.40;;;;;;5091898;28;20360;-65
2021/11/22 19:46:11;;;;;;;;;;;24.20;68.40;;;;;;5092596;28;19908;-64
2021/11/22 19:48:36;;;;;;;;;;;24.20;68.40;;;;;;5094771;28;20284;-64
2021/11/22 19:51:01;;;;;;;;;;;24.20;68.40;;;;;;5112774;28;19908;-64
2021/11/22 19:53:28;;;;;;;;;;;24.20;68.30;;;;;;5112719;28;19912;-64
2021/11/22 19:55:54;;;;;;;;;;;24.20;68.30;;;;;;5112685;28;20431;-64
2021/11/22 19:58:20;;;;;;;;;;;24.20;68.20;;;;;;5112015;28;19908;-63
2021/11/22 20:00:45;;;;;;;;;;;24.20;68.20;;;;;;5112637;28;19908;-64
2021/11/22 20:03:14;;;;;;;;;;;24.20;68.20;;;;;;5087030;28;20364;-63
2021/11/22 20:05:40;;;;;;;;;;;24.20;68.10;;;;;;5090623;28;20352;-64
2021/11/22 20:08:05;;;;;;;;;;;24.10;68.00;;;;;;5080138;28;19969;-64
2021/11/22 20:10:31;;;;;;;;;;;24.20;68.00;;;;;;5089269;28;19916;-64
2021/11/22 20:12:56;;;;;;;;;;;24.20;67.90;;;;;;5089095;28;19919;-63
2021/11/22 20:15:22;;;;;;;;;;;24.20;67.90;;;;;;5088319;28;19934;-63
2021/11/22 20:17:48;;;;;;;;;;;24.10;67.80;;;;;;5089114;28;20363;-65
2021/11/22 20:20:18;;;;;;;;;;;24.20;67.80;;;;;;5089397;28;19962;-65
2021/11/22 20:22:44;;;;;;;;;;;24.20;67.80;;;;;;5089573;28;19916;-63
2021/11/22 20:25:10;;;;;;;;;;;24.20;67.70;;;;;;5089354;28;19999;-66
2021/11/22 20:27:35;;;;;;;;;;;24.10;67.60;;;;;;5088972;28;19912;-64
2021/11/22 20:30:01;;;;;;;;;;;24.20;67.60;;;;;;5088989;28;20276;-65
2021/11/22 20:32:27;;;;;;;;;;;24.10;67.50;;;;;;5089042;28;20042;-65
2021/11/22 20:34:53;;;;;;;;;;;24.20;67.50;;;;;;5089179;28;19923;-64
2021/11/22 20:37:18;;;;;;;;;;;24.20;67.50;;;;;;5089355;28;19912;-63
2021/11/22 20:39:44;;;;;;;;;;;24.10;67.40;;;;;;5089080;28;19944;-64
2021/11/22 20:42:09;;;;;;;;;;;24.10;67.40;;;;;;5088512;28;19963;-64
2021/11/22 20:44:35;;;;;;;;;;;24.20;67.40;;;;;;5089615;28;19915;-66
2021/11/22 20:47:01;;;;;;;;;;;24.10;67.30;;;;;;5089293;28;20407;-64
2021/11/22 20:49:26;;;;;;;;;;;24.20;67.30;;;;;;5089161;28;20003;-65
2021/11/22 20:51:52;;;;;;;;;;;24.20;67.30;;;;;;5089052;28;19912;-65
2021/11/22 20:54:17;;;;;;;;;;;24.10;67.20;;;;;;5088784;28;19912;-65
2021/11/22 20:56:43;;;;;;;;;;;24.10;67.20;;;;;;5088605;28;19992;-63
2021/11/22 20:59:08;;;;;;;;;;;24.10;67.20;;;;;;5088944;28;19916;-65
2021/11/22 21:01:34;;;;;;;;;;;24.20;67.20;;;;;;5083475;28;19916;-62
2021/11/22 21:03:59;;;;;;;;;;;24.10;67.10;;;;;;5060737;28;19916;-63
2021/11/22 21:06:24;;;;;;;;;;;24.10;67.00;;;;;;5090740;28;19914;-65
2021/11/22 21:08:50;;;;;;;;;;;24.10;67.00;;;;;;5090898;28;19908;-66
2021/11/22 21:11:15;;;;;;;;;;;24.20;67.00;;;;;;5090532;28;19908;-67
2021/11/22 21:13:41;;;;;;;;;;;24.10;67.60;;;;;;5091518;28;19948;-65
2021/11/22 21:16:06;;;;;;;;;;;24.10;66.90;;;;;;5091515;28;20271;-65
2021/11/22 21:18:34;;;;;;;;;;;24.10;66.80;;;;;;5091416;28;19951;-66
2021/11/22 21:20:59;;;;;;;;;;;24.10;66.80;;;;;;5095367;28;20388;-65
2021/11/22 21:23:25;;;;;;;;;;;24.10;66.80;;;;;;5095202;28;19916;-64
2021/11/22 21:25:51;;;;;;;;;;;24.10;66.80;;;;;;5094648;28;20015;-65
2021/11/22 21:28:16;;;;;;;;;;;24.10;66.70;;;;;;5095162;28;19908;-64
2021/11/22 21:30:42;;;;;;;;;;;24.10;66.70;;;;;;5095168;28;19908;-64
2021/11/22 21:33:11;;;;;;;;;;;24.10;66.70;;;;;;5094849;28;20376;-65
2021/11/22 21:35:36;;;;;;;;;;;24.10;66.70;;;;;;5094956;28;19968;-64
2021/11/22 21:38:02;;;;;;;;;;;24.10;66.60;;;;;;5095190;28;20015;-64
2021/11/22 21:40:29;;;;;;;;;;;24.10;66.60;;;;;;5076248;28;19953;-65
2021/11/22 21:42:55;;;;;;;;;;;24.10;66.60;;;;;;5094976;28;20398;-63
2021/11/22 21:45:22;;;;;;;;;;;24.10;66.60;;;;;;5094846;28;20348;-64
2021/11/22 21:47:47;;;;;;;;;;;24.10;66.60;;;;;;5094770;28;19954;-64
2021/11/22 21:50:16;;;;;;;;;;;24.10;66.60;;;;;;5094757;28;20008;-65
2021/11/22 21:52:43;;;;;;;;;;;24.10;66.50;;;;;;5094260;28;19940;-65
2021/11/22 21:55:09;;;;;;;;;;;24.10;66.50;;;;;;5094715;28;19999;-65
2021/11/22 21:57:34;;;;;;;;;;;24.10;66.50;;;;;;5094782;28;20437;-65
2021/11/22 22:00:00;;;;;;;;;;;24.10;66.80;;;;;;5076412;28;20386;-65
2021/11/22 22:02:27;;;;;;;;;;;24.10;66.40;;;;;;5094384;28;20363;-64
2021/11/22 22:04:53;;;;;;;;;;;24.10;66.40;;;;;;5094534;28;19908;-64
2021/11/22 22:07:18;;;;;;;;;;;24.10;66.40;;;;;;5093864;28;19912;-64
2021/11/22 22:09:44;;;;;;;;;;;24.00;66.30;;;;;;5094314;28;19915;-64
2021/11/22 22:12:10;;;;;;;;;;;24.00;66.30;;;;;;5094351;28;19908;-64
2021/11/22 22:14:35;;;;;;;;;;;24.00;66.30;;;;;;5094213;28;19908;-64
2021/11/22 22:17:01;;;;;;;;;;;24.00;66.20;;;;;;5094223;28;19980;-64
2021/11/22 22:19:27;;;;;;;;;;;24.00;66.20;;;;;;5094171;28;19908;-63
2021/11/22 22:21:52;;;;;;;;;;;24.00;66.30;;;;;;5093648;28;20276;-64
2021/11/22 22:24:18;;;;;;;;;;;24.00;66.20;;;;;;5094100;28;20012;-64
2021/11/22 22:26:43;;;;;;;;;;;24.00;66.20;;;;;;5093996;28;20022;-64
2021/11/22 22:29:09;;;;;;;;;;;24.00;66.20;;;;;;5094008;28;19908;-64
2021/11/22 22:31:34;;;;;;;;;;;24.00;66.20;;;;;;5093773;28;19908;-64
2021/11/22 22:34:00;;;;;;;;;;;24.00;66.10;;;;;;5093740;28;19927;-64
2021/11/22 22:36:25;;;;;;;;;;;24.00;66.10;;;;;;5093627;28;19931;-64
2021/11/22 22:38:51;;;;;;;;;;;24.00;66.10;;;;;;5093805;28;20379;-63
2021/11/22 22:41:17;;;;;;;;;;;24.00;66.10;;;;;;5075687;28;19908;-65
2021/11/22 22:43:43;;;;;;;;;;;24.00;66.00;;;;;;5093720;28;20004;-64
2021/11/22 22:46:08;;;;;;;;;;;24.00;66.00;;;;;;5093653;28;19912;-64
2021/11/22 22:48:34;;;;;;;;;;;23.90;65.90;;;;;;5093739;28;19915;-64
2021/11/22 22:51:00;;;;;;;;;;;23.90;65.90;;;;;;5093116;28;19936;-64
2021/11/22 22:53:25;;;;;;;;;;;23.90;65.90;;;;;;5093621;28;19989;-64
2021/11/22 22:55:51;;;;;;;;;;;23.90;65.80;;;;;;5093865;28;20402;-64
2021/11/22 22:58:16;;;;;;;;;;;23.90;65.80;;;;;;5093424;28;19915;-65
2021/11/22 23:00:48;;;;;;;;;;;23.90;65.80;;;;;;5093354;28;19908;-65
2021/11/22 23:03:14;;;;;;;;;;;23.90;65.80;;;;;;5093209;28;19969;-63
2021/11/22 23:05:40;;;;;;;;;;;23.90;65.80;;;;;;5092760;28;19915;-65
2021/11/22 23:08:05;;;;;;;;;;;23.90;65.80;;;;;;5093386;28;19908;-64
2021/11/22 23:10:31;;;;;;;;;;;23.90;65.80;;;;;;5093611;28;19931;-64
2021/11/22 23:13:04;;;;;;;;;;;23.90;66.40;;;;;;5093226;28;19913;-65
2021/11/22 23:15:34;;;;;;;;;;;23.80;65.70;;;;;;5093144;28;19919;-66
2021/11/22 23:18:00;;;;;;;;;;;23.80;65.60;;;;;;5093121;28;20287;-66
2021/11/22 23:20:28;;;;;;;;;;;23.80;65.60;;;;;;5092484;28;19908;-66
2021/11/22 23:22:54;;;;;;;;;;;23.80;65.60;;;;;;5092991;28;20372;-65
2021/11/22 23:25:20;;;;;;;;;;;23.80;65.60;;;;;;5093407;28;20370;-66
2021/11/22 23:27:45;;;;;;;;;;;23.80;65.60;;;;;;5092913;28;19908;-65
2021/11/22 23:30:11;;;;;;;;;;;23.80;65.60;;;;;;5092831;28;19908;-65
2021/11/22 23:32:36;;;;;;;;;;;23.80;65.60;;;;;;5092660;28;19926;-66
2021/11/22 23:35:02;;;;;;;;;;;23.70;65.50;;;;;;5092390;28;19908;-65
2021/11/22 23:37:29;;;;;;;;;;;23.80;65.60;;;;;;5092742;28;19908;-65
2021/11/22 23:39:54;;;;;;;;;;;23.80;65.60;;;;;;5092687;28;19908;-64
2021/11/22 23:42:21;;;;;;;;;;;23.70;65.50;;;;;;5091989;28;19912;-65
2021/11/22 23:44:49;;;;;;;;;;;23.70;65.50;;;;;;5092624;28;19940;-64
2021/11/22 23:47:15;;;;;;;;;;;23.70;65.40;;;;;;5092554;28;19908;-65
2021/11/22 23:49:40;;;;;;;;;;;23.70;65.40;;;;;;5092067;28;20287;-64
2021/11/22 23:52:06;;;;;;;;;;;23.70;65.40;;;;;;5092458;28;19969;-65
2021/11/22 23:54:31;;;;;;;;;;;23.70;65.40;;;;;;5092425;28;19908;-64
2021/11/22 23:56:57;;;;;;;;;;;23.70;65.40;;;;;;5092368;28;19908;-65
2021/11/22 23:59:22;;;;;;;;;;;23.70;65.40;;;;;;5092354;28;19944;-64
